Latest Weather Observations for Goulburn Airport

IDN60801

Issued at 2:32 pm EST Tuesday 23 May 2017 (issued every 30 minutes, with the page automatically refreshed every 10 minutes)

About weather observations | Map of weather stations | Latest weather observations for NSW | Other Formats
Station Details ID: 070330 Name: GOULBURN AIRPORT AWS Lat: -34.81 Lon: 149.73 Height: 640.0 m
Data from the previous 72 hours. | See also: Recent months at Goulburn Airport
Date/Time
EST
Temp
°C
App
Temp
°C
Dew
Point
°C
Rel
Hum
%
Delta-T
°C
Wind Press
QNH
hPa
Press
MSL
hPa
Rain since
9am
mm
Dir  Spd
km/h
Gust
km/h
Spd
kts
Gust
kts
23/02:30pm 17.9 14.0 7.0 49 5.6 NW 17 24 9 13 1018.1 1018.3 0.0
23/02:00pm 17.9 13.4 7.0 49 5.6 WNW 20 28 11 15 1018.4 1018.5 0.0
23/01:30pm 18.0 13.6 7.4 50 5.5 NW 20 26 11 14 1018.6 1018.7 0.0
23/01:00pm 17.2 12.1 7.8 54 4.9 WNW 24 32 13 17 1018.9 1019.0 0.0
23/12:30pm 17.2 12.1 7.8 54 4.9 NW 24 32 13 17 1019.5 1019.7 0.0
23/12:00pm 16.8 11.6 8.8 59 4.2 WNW 26 33 14 18 1020.5 1020.6 0.0
23/11:30am 15.3 11.0 9.4 68 3.1 WNW 22 32 12 17 1021.1 1021.3 0.0
23/11:00am 15.6 12.1 10.2 70 2.9 WNW 19 26 10 14 1021.7 1021.8 0.0
23/10:30am 13.3 11.2 9.9 80 1.8 WNW 11 15 6 8 1022.0 1022.1 0.0
23/10:00am 11.5 10.3 9.4 87 1.1 NNW 6 9 3 5 1022.4 1022.6 0.0
23/09:30am 9.6 9.3 8.8 95 0.4 CALM 0 0 0 0 1022.4 1022.6 0.0
23/09:00am 7.6 7.0 7.5 99 0.0 CALM 0 0 0 0 1022.7 1022.9 0.2
23/08:30am 5.0 3.9 4.9 99 0.0 CALM 0 0 0 0 1022.8 1023.0 0.2
23/08:12am 3.5 2.1 3.4 99 0.0 CALM 0 0 0 0 1022.7 1022.9 0.2
23/08:00am 3.2 1.7 3.1 99 0.0 CALM 0 0 0 0 1022.7 1022.9 0.2
23/07:30am 1.6 -0.2 1.5 99 0.0 CALM 0 0 0 0 1022.7 1022.9 0.2
23/07:18am 1.5 -0.3 1.2 98 0.1 CALM 0 0 0 0 1022.8 1023.0 0.2
23/07:16am 1.3 -0.5 1.0 98 0.1 CALM 0 0 0 0 1022.8 1023.0 0.2
23/07:00am 1.1 -0.8 0.8 98 0.1 CALM 0 0 0 0 1022.7 1022.9 0.2
23/06:30am 2.1 0.4 2.0 99 0.0 CALM 0 0 0 0 1022.5 1022.7 0.2
23/06:00am 2.5 0.9 2.4 99 0.0 CALM 0 0 0 0 1022.2 1022.4 0.2
23/05:30am 2.7 1.1 2.6 99 0.0 CALM 0 0 0 0 1021.9 1022.0 0.2
23/05:00am 3.0 1.5 2.9 99 0.0 CALM 0 0 0 0 1021.8 1021.9 0.2
23/04:30am 3.8 2.4 3.7 99 0.0 CALM 0 0 0 0 1021.9 1022.0 0.2
23/04:00am 4.2 2.9 4.1 99 0.0 CALM 0 0 0 0 1021.9 1022.0 0.2
23/03:30am 4.5 3.3 4.4 99 0.0 CALM 0 0 0 0 1022.0 1022.1 0.2
23/03:00am 4.6 3.4 4.5 99 0.0 CALM 0 0 0 0 1022.2 1022.4 0.2
23/02:30am 4.7 3.5 4.6 99 0.0 CALM 0 0 0 0 1022.3 1022.5 0.2
23/02:00am 5.1 4.0 5.0 99 0.0 CALM 0 0 0 0 1022.6 1022.8 0.2
23/01:30am 5.1 4.0 5.0 99 0.0 CALM 0 0 0 0 1022.9 1023.1 0.2
23/01:00am 5.0 3.9 4.9 99 0.0 CALM 0 0 0 0 1023.0 1023.2 0.2
23/12:30am 5.3 4.2 5.2 99 0.0 CALM 0 0 0 0 1023.3 1023.4 0.2
23/12:00am 5.9 4.9 5.8 99 0.0 CALM 0 0 0 0 1023.5 1023.7 0.2
 
Date/Time
EST
Temp
°C
App
Temp
°C
Dew
Point
°C
Rel
Hum
%
Delta-T
°C
Wind Press
QNH
hPa
Press
MSL
hPa
Rain since
9am
mm
Dir  Spd
km/h
Gust
km/h
Spd
kts
Gust
kts
22/11:30pm 6.1 5.2 6.0 99 0.0 CALM 0 0 0 0 1023.7 1023.9 0.0
22/11:00pm 5.9 4.9 5.8 99 0.0 CALM 0 0 0 0 1023.7 1023.9 0.0
22/10:30pm 5.5 4.1 5.4 99 0.0 ESE 2 6 1 3 1023.7 1023.9 0.0
22/10:00pm 5.7 3.6 5.6 99 0.0 S 6 7 3 4 1023.7 1023.9 0.0
22/09:30pm 5.0 2.5 4.9 99 0.0 SSW 7 9 4 5 1023.7 1023.9 0.0
22/09:25pm 4.9 2.9 4.6 98 0.1 SSW 4 7 2 4 1023.7 1023.9 0.0
22/09:00pm 5.3 3.0 4.9 97 0.2 SW 6 7 3 4 1023.5 1023.7 0.0
22/08:30pm 5.9 3.7 5.3 96 0.3 ESE 6 7 3 4 1023.4 1023.6 0.0
22/08:09pm 7.1 6.0 6.8 98 0.1 ESE 2 6 1 3 1023.4 1023.6 0.0
22/08:00pm 7.3 6.7 7.2 99 0.0 CALM 0 0 0 0 1023.3 1023.4 0.0
22/07:30pm 7.3 6.6 6.9 97 0.2 CALM 0 0 0 0 1023.1 1023.3 0.0
22/07:00pm 7.5 6.7 6.4 93 0.5 CALM 0 0 0 0 1023.0 1023.2 0.0
22/06:30pm 8.6 7.4 6.6 87 1.0 ESE 2 6 1 3 1022.8 1023.0 0.0
22/06:00pm 9.8 9.3 7.7 87 1.0 CALM 0 0 0 0 1022.8 1023.0 0.0
22/05:30pm 11.8 11.5 8.8 82 1.5 CALM 0 0 0 0 1022.6 1022.8 0.0
22/05:00pm 12.6 11.0 8.7 77 2.0 ESE 7 9 4 5 1022.3 1022.5 0.0
22/04:30pm 14.7 12.9 9.3 70 2.9 ESE 9 11 5 6 1022.2 1022.4 0.0
22/04:00pm 15.9 13.7 9.3 65 3.5 ESE 11 13 6 7 1022.1 1022.3 0.0
22/03:30pm 16.3 14.7 8.8 61 4.0 E 7 13 4 7 1022.1 1022.3 0.0
22/03:00pm 17.4 16.1 9.1 58 4.4 NE 6 9 3 5 1022.1 1022.3 0.0
22/02:30pm 17.1 15.7 9.0 59 4.3 NE 6 11 3 6 1022.3 1022.5 0.0
22/02:00pm 16.4 15.5 9.1 62 3.9 SSE 4 9 2 5 1022.5 1022.7 0.0
22/01:30pm 15.4 14.5 9.3 67 3.2 NE 4 7 2 4 1022.9 1023.1 0.0
22/01:00pm 13.9 13.2 10.1 78 2.0 SSE 4 9 2 5 1023.0 1023.2 0.0
22/12:32pm 12.5 12.7 11.9 96 0.3 SSW 2 7 1 4 1023.3 1023.4 0.0
22/12:30pm 12.4 12.6 11.8 96 0.3 SSW 2 7 1 4 1023.4 1023.6 0.0
22/12:04pm 10.1 9.0 10.0 99 0.1 SSE 6 9 3 5 1023.8 1024.0 0.0
22/12:00pm 9.8 9.0 9.7 99 0.1 S 4 9 2 5 1023.9 1024.1 0.0
22/11:30am 8.2 6.6 8.1 99 0.0 S 6 9 3 5 1024.5 1024.7 0.0
22/11:00am 7.5 6.5 7.4 99 0.0 N 2 6 1 3 1024.9 1025.1 0.0
22/10:30am 6.7 5.9 6.6 99 0.0 CALM 0 0 0 0 1025.3 1025.5 0.0
22/10:00am 5.7 3.9 5.6 99 0.0 N 4 7 2 4 1025.6 1025.8 0.0
22/09:30am 5.2 4.1 5.1 99 0.0 CALM 0 0 0 0 1025.6 1025.8 0.0
22/09:00am 4.5 3.3 4.4 99 0.0 CALM 0 6 0 3 1025.5 1025.7 0.4
22/08:30am 4.0 2.3 3.9 99 0.0 S 2 7 1 4 1025.5 1025.7 0.4
22/08:00am 3.5 2.1 3.4 99 0.0 CALM 0 0 0 0 1025.4 1025.6 0.4
22/07:30am 3.3 1.8 3.2 99 0.0 CALM 0 0 0 0 1025.1 1025.3 0.4
22/07:00am 3.2 0.6 3.1 99 0.0 SSW 6 7 3 4 1024.7 1025.0 0.4
22/06:30am 3.8 2.4 3.7 99 0.0 CALM 0 0 0 0 1024.5 1024.7 0.4
22/06:00am 4.0 2.7 3.9 99 0.0 CALM 0 2 0 1 1024.3 1024.5 0.4
22/05:30am 4.0 2.7 3.9 99 0.0 CALM 0 0 0 0 1024.0 1024.2 0.2
22/05:00am 4.0 2.7 3.9 99 0.0 CALM 0 0 0 0 1023.9 1024.1 0.2
22/04:30am 3.9 2.5 3.8 99 0.0 CALM 0 0 0 0 1023.7 1023.9 0.2
22/04:00am 4.1 2.8 4.0 99 0.0 CALM 0 0 0 0 1023.6 1023.8 0.2
22/03:30am 3.6 2.2 3.5 99 0.0 CALM 0 0 0 0 1023.5 1023.7 0.2
22/03:00am 4.8 3.6 4.7 99 0.0 CALM 0 6 0 3 1023.5 1023.7 0.2
22/02:30am 5.3 4.2 5.2 99 0.0 CALM 0 0 0 0 1023.6 1023.8 0.2
22/02:00am 5.5 4.1 5.4 99 0.0 N 2 6 1 3 1023.7 1023.9 0.2
22/01:30am 5.8 3.7 5.7 99 0.0 NNW 6 9 3 5 1023.8 1024.0 0.0
22/01:00am 5.8 4.4 5.7 99 0.0 NNE 2 7 1 4 1023.9 1024.1 0.0
22/12:30am 6.0 3.7 5.9 99 0.0 NNW 7 9 4 5 1024.0 1024.2 0.0
22/12:00am 6.2 5.3 6.1 99 0.0 CALM 0 0 0 0 1024.0 1024.2 0.0
 
Date/Time
EST
Temp
°C
App
Temp
°C
Dew
Point
°C
Rel
Hum
%
Delta-T
°C
Wind Press
QNH
hPa
Press
MSL
hPa
Rain since
9am
mm
Dir  Spd
km/h
Gust
km/h
Spd
kts
Gust
kts
21/11:30pm 6.7 5.9 6.6 99 0.0 CALM 0 0 0 0 1023.9 1024.1 0.0
21/11:00pm 6.2 5.3 6.1 99 0.0 CALM 0 0 0 0 1023.9 1024.1 0.0
21/10:30pm 6.7 5.9 6.6 99 0.0 CALM 0 0 0 0 1024.0 1024.2 0.0
21/10:00pm 5.9 4.9 5.8 99 0.0 CALM 0 0 0 0 1023.9 1024.1 0.0
21/09:59pm 6.0 5.1 5.9 99 0.0 CALM 0 0 0 0 1023.9 1024.1 0.0
21/09:31pm 3.5 2.0 2.9 96 0.3 CALM 0 0 0 0 1023.8 1024.0 0.0
21/09:30pm 3.2 1.6 2.5 95 0.3 CALM 0 0 0 0 1023.8 1024.0 0.0
21/09:00pm 3.6 2.0 2.7 94 0.4 CALM 0 0 0 0 1023.7 1023.9 0.0
21/08:30pm 4.3 2.8 3.1 92 0.5 CALM 0 0 0 0 1023.5 1023.7 0.0
21/08:00pm 5.0 3.7 4.0 93 0.4 CALM 0 0 0 0 1023.1 1023.3 0.0
21/07:30pm 5.4 4.1 4.1 91 0.6 CALM 0 6 0 3 1022.9 1023.1 0.0
21/07:00pm 5.8 4.4 3.5 85 1.0 CALM 0 6 0 3 1022.6 1022.8 0.0
21/06:30pm 7.4 6.2 4.7 83 1.2 CALM 0 0 0 0 1022.3 1022.5 0.0
21/06:00pm 7.7 5.5 5.2 84 1.2 SSE 6 9 3 5 1022.0 1022.1 0.0
21/05:30pm 9.0 5.8 5.0 76 1.9 W 11 11 6 6 1021.8 1021.9 0.0
21/05:00pm 11.1 8.0 5.4 68 2.7 W 11 13 6 7 1021.4 1021.6 0.0
21/04:30pm 14.6 12.0 5.9 56 4.3 WSW 9 13 5 7 1021.2 1021.4 0.0
21/04:00pm 15.8 13.0 5.1 49 5.2 WSW 9 13 5 7 1020.9 1021.1 0.0
21/03:30pm 16.4 13.6 5.1 47 5.6 W 9 17 5 9 1020.7 1020.9 0.0
21/03:00pm 16.7 14.2 4.7 45 5.9 NNW 7 13 4 7 1020.6 1020.7 0.0
21/02:30pm 16.5 13.5 4.2 44 6.0 WNW 9 15 5 8 1020.5 1020.6 0.0
21/02:00pm 16.2 12.9 4.3 45 5.7 W 11 17 6 9 1020.5 1020.6 0.0
21/01:30pm 16.2 13.6 4.3 45 5.8 NNW 7 13 4 7 1020.5 1020.6 0.0
21/01:00pm 15.9 13.7 6.1 52 4.9 NW 7 13 4 7 1020.6 1020.7 0.0
21/12:30pm 15.2 13.5 7.5 60 4.0 NW 6 9 3 5 1020.9 1021.1 0.0
21/12:00pm 15.0 13.9 8.5 65 3.4 S 4 7 2 4 1021.4 1021.6 0.0
21/11:30am 13.3 11.7 8.2 71 2.6 NW 6 13 3 7 1022.0 1022.1 0.0
21/11:18am 12.6 11.1 9.2 80 1.8 NW 7 11 4 6 1022.1 1022.3 0.0
21/11:00am 11.7 11.0 11.5 99 0.1 NW 6 13 3 7 1022.4 1022.6 0.0
21/10:30am 9.6 7.8 9.5 99 0.1 NNW 9 13 5 7 1022.6 1022.8 0.0
21/10:29am 9.7 7.9 9.6 99 0.1 NNW 9 13 5 7 1022.6 1022.8 0.0
21/10:00am 8.8 6.8 8.7 99 0.1 NW 9 13 5 7 1022.8 1023.0 0.0
21/09:30am 7.5 6.5 7.4 99 0.0 ENE 2 6 1 3 1022.8 1023.0 0.0
21/09:00am 6.0 4.7 5.9 99 0.0 E 2 6 1 3 1022.6 1022.8 0.2
21/08:30am 5.1 3.6 5.0 99 0.0 SSW 2 6 1 3 1022.3 1022.5 0.2
21/08:00am 3.8 1.1 3.7 99 0.0 S 7 9 4 5 1022.1 1022.3 0.2
21/07:30am 2.2 -0.6 2.1 99 0.0 S 6 6 3 3 1021.7 1021.8 0.2
21/07:00am 1.1 -1.5 1.0 99 0.0 S 4 7 2 4 1021.2 1021.4 0.2
21/06:30am 0.7 -1.6 0.6 99 0.0 NNW 2 7 1 4 1020.8 1021.0 0.2
21/06:00am 0.8 -1.5 0.7 99 0.0 E 2 9 1 5 1020.4 1020.5 0.0
21/05:30am 0.9 -2.3 0.8 99 0.0 N 7 9 4 5 1020.1 1020.2 0.0
21/05:00am 1.1 -2.4 1.0 99 0.0 N 9 9 5 5 1020.0 1020.1 0.0
21/04:30am 1.2 -0.6 1.1 99 0.0 CALM 0 0 0 0 1019.7 1019.9 0.0
21/04:00am 1.5 -0.6 1.4 99 0.0 ESE 2 6 1 3 1019.9 1020.0 0.0
21/03:30am 1.7 -1.8 1.4 98 0.1 N 9 13 5 7 1019.7 1019.9 0.0
21/03:08am 1.7 -0.5 1.1 96 0.2 ESE 2 6 1 3 1019.5 1019.7 0.0
21/03:00am 1.8 -1.1 1.4 97 0.2 ESE 6 9 3 5 1019.5 1019.7 0.0
21/02:46am 2.7 1.1 2.6 99 0.0 CALM 0 4 0 2 1019.6 1019.8 0.0
21/02:30am 5.2 4.1 5.1 99 0.0 CALM 0 0 0 0 1019.7 1019.9 0.0
21/02:11am 4.7 3.5 4.6 99 0.0 CALM 0 6 0 3 1019.7 1019.9 0.0
21/02:05am 4.0 2.7 3.9 99 0.0 CALM 0 6 0 3 1019.7 1019.9 0.0
21/02:00am 3.4 1.6 3.3 99 0.0 NW 2 6 1 3 1019.7 1019.9 0.0
21/01:33am 2.4 -0.6 1.8 96 0.2 N 7 11 4 6 1020.0 1020.1 0.0
21/01:30am 2.3 -1.1 1.7 96 0.2 N 9 11 5 6 1020.0 1020.1 0.0
21/01:23am 3.0 0.1 2.7 98 0.1 NNW 7 9 4 5 1020.0 1020.1 0.0
21/01:00am 3.9 0.8 3.6 98 0.1 W 9 11 5 6 1020.1 1020.2 0.0
21/12:39am 5.1 2.8 5.0 99 0.0 NNW 6 7 3 4 1020.1 1020.2 0.0
21/12:30am 4.7 3.1 4.6 99 0.0 NNW 2 7 1 4 1020.1 1020.2 0.0
21/12:18am 3.7 1.5 3.3 97 0.2 NNW 4 7 2 4 1020.0 1020.1 0.0
21/12:00am 5.0 2.1 4.9 99 0.0 NW 9 11 5 6 1020.0 1020.1 0.0
 
Date/Time
EST
Temp
°C
App
Temp
°C
Dew
Point
°C
Rel
Hum
%
Delta-T
°C
Wind Press
QNH
hPa
Press
MSL
hPa
Rain since
9am
mm
Dir  Spd
km/h
Gust
km/h
Spd
kts
Gust
kts
20/11:49pm 4.6 1.7 4.5 99 0.0 WNW 9 11 5 6 1019.9 1020.0 0.0
20/11:30pm 3.7 2.2 3.1 96 0.3 CALM 0 0 0 0 1020.0 1020.1 0.0
20/11:13pm 3.2 1.6 2.2 93 0.4 CALM 0 0 0 0 1020.1 1020.2 0.0
20/11:00pm 4.9 3.6 4.3 96 0.3 CALM 0 0 0 0 1020.0 1020.1 0.0
20/10:30pm 4.9 3.3 4.6 98 0.1 WNW 2 7 1 4 1020.1 1020.2 0.0
20/10:00pm 4.8 1.8 4.2 96 0.3 NNE 9 11 5 6 1020.2 1020.3 0.0
20/09:30pm 5.3 2.9 4.4 94 0.4 N 6 7 3 4 1020.0 1020.1 0.0
20/09:00pm 6.2 5.2 5.5 95 0.3 CALM 0 0 0 0 1019.7 1019.9 0.0
20/08:30pm 6.5 4.8 5.8 95 0.3 NNW 4 9 2 5 1019.7 1019.9 0.0
20/08:00pm 5.8 4.2 4.6 92 0.5 SW 2 9 1 5 1019.7 1019.9 0.0
20/07:30pm 7.2 5.1 5.8 91 0.7 WNW 6 7 3 4 1019.6 1019.8 0.0
20/07:00pm 7.8 7.0 6.4 91 0.7 CALM 0 0 0 0 1019.4 1019.6 0.0
20/06:30pm 8.6 6.4 6.4 86 1.1 W 7 9 4 5 1019.1 1019.2 0.0
20/06:00pm 9.5 7.7 7.1 85 1.2 W 6 9 3 5 1018.9 1019.0 0.0
20/05:30pm 10.4 7.6 7.1 80 1.6 W 11 13 6 7 1018.5 1018.6 0.0
20/05:00pm 12.4 9.3 7.3 71 2.6 W 13 15 7 8 1018.1 1018.3 0.0
20/04:30pm 15.1 11.8 7.9 62 3.7 W 15 19 8 10 1017.8 1017.9 0.0
20/04:00pm 16.0 12.2 7.7 58 4.3 W 17 22 9 12 1017.5 1017.6 0.0
20/03:30pm 16.6 12.4 7.5 55 4.7 W 19 24 10 13 1017.4 1017.5 0.0
20/03:00pm 16.1 11.8 6.8 54 4.7 WNW 19 28 10 15 1017.4 1017.5 0.0

Other Formats:

Comma delimited format used in spreadsheet applications
http://www.bom.gov.au/fwo/IDN60801/IDN60801.95716.axf

JavaScript Object Notation format (JSON) in row-major order
http://www.bom.gov.au/fwo/IDN60801/IDN60801.95716.json